Time;durP1;ratioP1;P1;durP2;ratioP2;P2;SDS_P1;SDS_P2;PMS_P1;PMS_P2;Temp;Humidity;BMP_temperature;BMP_pressure;BME280_temperature;BME280_humidity;BME280_pressure;Samples;Min_cycle;Max_cycle;Signal;HPM_P1;HPM_P2
2021/11/28 00:00:13;;;;;;;7.93;2.30;;;9.30;92.30;;;;;;4973402;28;20038;-69
2021/11/28 00:02:39;;;;;;;7.10;2.30;;;9.30;92.30;;;;;;4973805;28;20138;-69
2021/11/28 00:05:06;;;;;;;9.57;2.27;;;9.30;92.10;;;;;;4973472;28;20539;-69
2021/11/28 00:10:15;;;;;;;7.10;1.80;;;9.40;92.10;;;;;;4974869;28;20043;-69
2021/11/28 00:12:47;;;;;;;7.70;2.83;;;9.40;92.00;;;;;;4977637;28;20021;-69
2021/11/28 00:15:16;;;;;;;10.40;2.08;;;9.40;92.00;;;;;;4977187;28;20031;-69
2021/11/28 00:17:42;;;;;;;5.37;1.73;;;9.40;92.00;;;;;;4977459;28;20105;-69
2021/11/28 00:20:12;;;;;;;8.63;2.07;;;9.40;91.90;;;;;;4977202;28;20088;-69
2021/11/28 00:22:39;;;;;;;8.93;2.10;;;9.40;91.90;;;;;;4960314;28;20101;-69
2021/11/28 00:25:08;;;;;;;8.90;2.10;;;9.50;91.80;;;;;;4977097;28;20050;-69
2021/11/28 00:27:34;;;;;;;8.40;2.07;;;9.50;91.60;;;;;;4977117;28;20022;-69
2021/11/28 00:30:01;;;;;;;8.30;2.53;;;9.50;91.70;;;;;;4977017;28;20039;-68
2021/11/28 00:32:26;;;;;;;7.40;2.60;;;9.50;91.70;;;;;;4976972;28;20029;-68
2021/11/28 00:34:52;;;;;;;8.73;2.40;;;9.60;91.70;;;;;;4977077;28;20106;-69
2021/11/28 00:37:18;;;;;;;9.13;2.40;;;9.60;91.70;;;;;;4977051;28;20548;-68
2021/11/28 00:39:46;;;;;;;8.37;2.20;;;9.60;91.90;;;;;;4976706;28;20050;-68
2021/11/28 00:42:12;;;;;;;7.07;2.20;;;9.60;91.80;;;;;;4976918;28;20086;-68
2021/11/28 00:44:38;;;;;;;9.68;2.42;;;9.50;91.90;;;;;;4976710;28;20026;-68
2021/11/28 00:47:03;;;;;;;9.60;2.20;;;9.50;91.90;;;;;;4976897;28;20029;-69
2021/11/28 00:49:30;;;;;;;11.03;2.20;;;9.50;91.90;;;;;;4976807;28;20542;-68
2021/11/28 00:51:58;;;;;;;8.60;1.90;;;9.50;91.90;;;;;;4976764;28;20094;-69
2021/11/28 00:54:26;;;;;;;6.07;1.70;;;9.50;92.00;;;;;;4976579;28;20511;-69
2021/11/28 00:56:53;;;;;;;8.93;2.07;;;9.50;92.20;;;;;;4976422;28;20023;-68
2021/11/28 00:59:19;;;;;;;6.53;2.07;;;9.40;92.40;;;;;;4976607;28;20023;-68
2021/11/28 01:01:45;;;;;;;6.10;1.77;;;9.40;92.40;;;;;;4976584;28;20025;-69
2021/11/28 01:04:11;;;;;;;10.67;2.00;;;9.40;92.40;;;;;;4975322;28;20027;-69
2021/11/28 01:06:38;;;;;;;6.17;1.93;;;9.40;92.40;;;;;;4976488;28;20086;-68
2021/11/28 01:09:06;;;;;;;5.43;2.00;;;9.40;92.70;;;;;;4976134;28;20057;-69
2021/11/28 01:11:32;;;;;;;11.70;2.80;;;9.40;92.60;;;;;;4958634;28;20443;-68
2021/11/28 01:13:58;;;;;;;3.23;1.57;;;9.40;92.60;;;;;;4976298;28;20464;-69
2021/11/28 01:16:25;;;;;;;8.07;1.90;;;9.30;92.60;;;;;;4976345;28;20023;-69
2021/11/28 01:18:52;;;;;;;8.17;1.90;;;9.40;92.70;;;;;;4976660;28;20424;-69
2021/11/28 01:21:18;;;;;;;4.97;1.60;;;9.40;92.60;;;;;;4975896;28;20058;-69
2021/11/28 01:23:44;;;;;;;5.07;2.00;;;9.40;92.60;;;;;;4976380;28;20086;-69
2021/11/28 01:26:10;;;;;;;5.83;1.77;;;9.40;92.60;;;;;;4976234;28;20419;-69
2021/11/28 01:28:35;;;;;;;5.80;1.60;;;9.40;92.50;;;;;;4976049;28;20089;-69
2021/11/28 01:31:01;;;;;;;10.50;1.77;;;9.40;92.50;;;;;;4975984;28;20380;-69
2021/11/28 01:33:27;;;;;;;4.43;1.50;;;9.40;92.50;;;;;;4975883;28;20022;-69
2021/11/28 01:35:53;;;;;;;6.37;1.37;;;9.40;92.40;;;;;;4975766;28;20046;-69
2021/11/28 01:38:20;;;;;;;4.13;1.33;;;9.40;92.40;;;;;;4976013;28;20030;-69
2021/11/28 01:40:48;;;;;;;5.27;1.57;;;9.40;92.40;;;;;;4975729;28;20053;-68
2021/11/28 01:43:16;;;;;;;3.97;1.20;;;9.40;92.40;;;;;;4974611;28;20475;-69
2021/11/28 01:45:43;;;;;;;4.90;1.17;;;9.40;92.40;;;;;;4975599;28;20038;-68
2021/11/28 01:48:11;;;;;;;3.10;0.90;;;9.40;92.40;;;;;;4975587;28;20387;-69
2021/11/28 01:50:39;;;;;;;4.50;1.00;;;9.40;92.40;;;;;;4975501;28;20066;-69
2021/11/28 01:53:17;;;;;;;2.93;1.10;;;9.40;92.50;;;;;;4975124;28;20030;-69
2021/11/28 01:55:42;;;;;;;6.87;1.67;;;9.40;92.60;;;;;;4975590;28;20031;-68
2021/11/28 01:58:09;;;;;;;3.40;1.00;;;9.40;92.50;;;;;;4956875;28;20533;-69
2021/11/28 02:00:40;;;;;;;7.30;1.17;;;9.30;92.60;;;;;;4972547;28;20498;-69
2021/11/28 02:03:07;;;;;;;6.23;1.20;;;9.40;92.60;;;;;;4972357;28;20027;-69
2021/11/28 02:05:33;;;;;;;4.53;0.90;;;9.30;92.70;;;;;;4974216;28;20031;-68
2021/11/28 02:07:59;;;;;;;4.87;0.93;;;9.30;92.80;;;;;;4974897;28;20119;-69
2021/11/28 02:10:27;;;;;;;7.97;1.20;;;9.30;92.80;;;;;;4975203;28;20035;-69
2021/11/28 02:12:53;;;;;;;4.77;0.93;;;9.30;92.80;;;;;;4974957;28;20554;-68
2021/11/28 02:15:20;;;;;;;4.17;1.10;;;9.30;92.80;;;;;;4975056;28;20034;-69
2021/11/28 02:17:51;;;;;;;2.73;0.90;;;9.30;92.80;;;;;;4974981;28;20433;-68
2021/11/28 02:20:20;;;;;;;2.63;1.10;;;9.30;92.80;;;;;;4957585;28;20480;-69
2021/11/28 02:22:45;;;;;;;7.63;1.40;;;9.30;92.80;;;;;;4975093;28;20026;-68
2021/11/28 02:25:11;;;;;;;4.80;1.07;;;9.30;92.90;;;;;;4975095;28;20042;-69
2021/11/28 02:27:38;;;;;;;3.53;0.83;;;9.20;92.90;;;;;;4974571;28;20027;-69
2021/11/28 02:30:07;;;;;;;5.73;1.10;;;9.20;92.80;;;;;;4974580;28;20384;-69
2021/11/28 02:32:34;;;;;;;5.30;1.17;;;9.20;92.90;;;;;;4974407;28;20396;-69
2021/11/28 02:34:59;;;;;;;2.50;0.60;;;9.20;92.90;;;;;;4974487;28;20031;-69
2021/11/28 02:37:25;;;;;;;4.67;1.10;;;9.20;92.80;;;;;;4957382;28;20031;-69
2021/11/28 02:39:52;;;;;;;1.90;0.80;;;9.20;92.80;;;;;;4974629;28;20384;-69
2021/11/28 02:42:19;;;;;;;3.33;0.97;;;9.20;92.80;;;;;;4957165;28;20031;-69
2021/11/28 02:44:47;;;;;;;3.03;0.80;;;9.20;92.70;;;;;;4974324;28;20043;-68
2021/11/28 02:47:13;;;;;;;3.37;0.90;;;9.20;92.70;;;;;;4974397;28;20086;-69
2021/11/28 02:49:39;;;;;;;1.07;0.60;;;9.20;92.70;;;;;;4974135;28;20503;-69
2021/11/28 02:52:09;;;;;;;3.63;0.90;;;9.20;92.70;;;;;;4974420;28;20353;-68
2021/11/28 02:54:35;;;;;;;2.70;0.70;;;9.30;92.50;;;;;;4974577;28;20109;-68
2021/11/28 02:57:02;;;;;;;2.27;0.57;;;9.30;92.50;;;;;;4974427;28;20527;-68
2021/11/28 02:59:27;;;;;;;3.87;1.23;;;9.20;92.60;;;;;;4973767;28;20396;-69
2021/11/28 03:01:53;;;;;;;2.37;0.80;;;9.20;92.70;;;;;;4974516;28;20027;-68
2021/11/28 03:04:19;;;;;;;1.60;0.73;;;9.20;92.70;;;;;;4974511;28;20041;-68
2021/11/28 03:06:45;;;;;;;2.07;0.70;;;9.10;92.80;;;;;;4973993;28;20023;-68
2021/11/28 03:09:11;;;;;;;3.27;0.87;;;9.10;92.80;;;;;;4973875;28;20061;-68
2021/11/28 03:11:36;;;;;;;2.30;0.73;;;9.20;92.80;;;;;;4974712;28;20058;-69
2021/11/28 03:14:02;;;;;;;2.13;0.70;;;9.20;92.80;;;;;;4974463;28;20042;-68
2021/11/28 03:16:29;;;;;;;4.83;0.73;;;9.10;92.80;;;;;;4974360;28;20105;-68
2021/11/28 03:18:55;;;;;;;2.77;0.70;;;9.20;92.90;;;;;;4974226;28;20027;-69
2021/11/28 03:21:26;;;;;;;3.63;0.70;;;9.10;92.80;;;;;;4974186;28;20102;-68
2021/11/28 03:23:56;;;;;;;4.97;0.77;;;9.20;92.80;;;;;;4974465;28;20030;-69
2021/11/28 03:26:34;;;;;;;3.03;0.50;;;9.20;92.80;;;;;;4974396;28;20027;-68
2021/11/28 03:29:06;;;;;;;3.23;0.50;;;9.10;92.80;;;;;;4974155;28;20062;-68
2021/11/28 03:31:39;;;;;;;2.30;0.47;;;9.20;92.90;;;;;;4974092;28;20027;-69
2021/11/28 03:34:06;;;;;;;2.20;0.60;;;9.20;92.70;;;;;;4974103;28;20027;-68
2021/11/28 03:36:36;;;;;;;1.67;0.57;;;9.20;92.70;;;;;;4974028;28;20041;-69
2021/11/28 03:39:04;;;;;;;1.80;0.50;;;9.20;92.80;;;;;;4973953;28;20031;-69
2021/11/28 03:41:32;;;;;;;4.07;0.50;;;9.20;92.90;;;;;;4974016;28;20089;-69
2021/11/28 03:43:59;;;;;;;3.17;0.70;;;9.20;92.90;;;;;;4973935;28;20023;-69
2021/11/28 03:46:27;;;;;;;2.50;0.80;;;9.30;92.90;;;;;;4977271;28;20065;-69
2021/11/28 03:48:53;;;;;;;2.93;0.50;;;9.30;92.90;;;;;;4977805;28;20102;-69
2021/11/28 03:51:19;;;;;;;3.40;0.60;;;9.20;93.10;;;;;;4977578;28;20023;-69
2021/11/28 03:53:45;;;;;;;4.13;0.70;;;9.20;93.20;;;;;;4977401;28;20088;-69
2021/11/28 03:56:12;;;;;;;1.80;0.50;;;9.20;93.20;;;;;;4977496;28;20375;-69
2021/11/28 03:58:39;;;;;;;5.43;0.70;;;9.20;93.20;;;;;;4977591;28;20034;-69
2021/11/28 04:01:08;;;;;;;1.60;0.63;;;9.30;93.10;;;;;;4977566;28;20379;-69
2021/11/28 04:03:35;;;;;;;2.20;0.73;;;9.30;93.20;;;;;;4977532;28;20107;-69
2021/11/28 04:06:01;;;;;;;4.93;0.70;;;9.30;93.20;;;;;;4977652;28;20053;-69
2021/11/28 04:08:27;;;;;;;4.97;0.80;;;9.30;93.20;;;;;;4977338;28;20495;-69
2021/11/28 04:10:52;;;;;;;5.80;1.53;;;9.30;93.10;;;;;;4977486;28;20022;-69
2021/11/28 04:13:18;;;;;;;5.93;0.80;;;9.30;92.80;;;;;;4977668;28;20066;-69
2021/11/28 04:15:44;;;;;;;3.37;0.70;;;9.40;92.70;;;;;;4977312;28;20391;-68
2021/11/28 04:18:10;;;;;;;6.23;0.63;;;9.40;92.70;;;;;;4977282;28;20069;-68
2021/11/28 04:20:36;;;;;;;1.73;0.43;;;9.40;92.70;;;;;;4977269;28;20054;-69
2021/11/28 04:23:03;;;;;;;5.67;0.80;;;9.40;92.70;;;;;;4977173;28;20027;-69
2021/11/28 04:25:29;;;;;;;2.97;0.60;;;9.40;92.50;;;;;;4977107;28;20058;-69
2021/11/28 04:27:55;;;;;;;5.13;0.53;;;9.40;92.50;;;;;;4977011;28;20110;-69
2021/11/28 04:30:21;;;;;;;3.87;0.87;;;9.40;92.50;;;;;;4977358;28;20564;-69
2021/11/28 04:32:47;;;;;;;4.07;0.73;;;9.50;92.50;;;;;;4977366;28;20400;-69
2021/11/28 04:35:13;;;;;;;4.97;0.80;;;9.40;92.70;;;;;;4976989;28;20035;-69
2021/11/28 04:37:39;;;;;;;4.23;0.70;;;9.40;92.90;;;;;;4976884;28;20022;-68
2021/11/28 04:40:07;;;;;;;1.70;0.50;;;9.40;92.90;;;;;;4976898;28;20027;-69
2021/11/28 04:42:33;;;;;;;2.87;0.70;;;9.40;92.90;;;;;;4976798;28;20525;-68
2021/11/28 04:44:58;;;;;;;2.53;0.70;;;9.30;93.00;;;;;;4976847;28;20041;-68
2021/11/28 04:47:24;;;;;;;4.07;0.87;;;9.40;93.00;;;;;;4976497;28;20399;-68
2021/11/28 04:49:50;;;;;;;4.40;0.80;;;9.40;92.80;;;;;;4976499;28;20066;-69
2021/11/28 04:52:16;;;;;;;5.97;1.30;;;9.40;92.70;;;;;;4976886;28;20054;-68
2021/11/28 04:54:42;;;;;;;3.13;1.10;;;9.40;92.60;;;;;;4976851;28;20034;-68
2021/11/28 04:57:08;;;;;;;4.83;0.70;;;9.50;92.50;;;;;;4976233;28;20087;-69
2021/11/28 04:59:34;;;;;;;5.87;0.87;;;9.50;92.60;;;;;;4976447;28;20093;-69
2021/11/28 05:02:00;;;;;;;2.83;1.03;;;9.50;92.70;;;;;;4976418;28;20023;-69
2021/11/28 05:04:26;;;;;;;12.27;2.17;;;9.40;92.80;;;;;;4976398;28;20491;-68
2021/11/28 05:06:52;;;;;;;8.87;1.33;;;9.40;92.90;;;;;;4976446;28;20034;-69
2021/11/28 05:09:17;;;;;;;7.00;1.10;;;9.50;93.20;;;;;;4976361;28;20058;-68
2021/11/28 05:11:44;;;;;;;8.63;1.30;;;9.50;93.80;;;;;;4976297;28;20031;-69
2021/11/28 05:14:09;;;;;;;6.37;1.23;;;9.40;94.10;;;;;;4976279;28;20030;-69
2021/11/28 05:16:37;;;;;;;5.57;1.27;;;9.40;94.20;;;;;;4976515;28;20053;-69
2021/11/28 05:19:03;;;;;;;7.77;1.40;;;9.40;94.10;;;;;;4976516;28;20042;-68
2021/11/28 05:21:29;;;;;;;3.67;1.10;;;9.40;94.00;;;;;;4958959;28;20026;-68
2021/11/28 05:23:55;;;;;;;8.07;1.10;;;9.40;94.00;;;;;;4976472;28;20498;-68
2021/11/28 05:26:22;;;;;;;7.40;1.50;;;9.30;94.00;;;;;;4976099;28;20110;-68
2021/11/28 05:28:48;;;;;;;10.03;1.40;;;9.30;93.90;;;;;;4976157;28;20134;-69
2021/11/28 05:31:17;;;;;;;8.87;1.80;;;9.30;94.00;;;;;;4975898;28;20030;-68
2021/11/28 05:33:47;;;;;;;5.63;1.30;;;9.30;94.10;;;;;;4958908;28;20031;-68
2021/11/28 05:36:14;;;;;;;6.60;1.40;;;9.30;94.00;;;;;;4975882;28;20105;-68
2021/11/28 05:38:41;;;;;;;5.47;1.37;;;9.30;94.00;;;;;;4976141;28;20031;-69
2021/11/28 05:41:07;;;;;;;8.83;2.07;;;9.30;94.00;;;;;;4975602;28;20058;-69
2021/11/28 05:43:36;;;;;;;8.83;1.67;;;9.30;94.00;;;;;;4975738;28;20026;-68
2021/11/28 05:46:01;;;;;;;5.43;1.60;;;9.30;93.90;;;;;;4975815;28;20388;-68
2021/11/28 05:48:27;;;;;;;6.40;1.50;;;9.30;93.90;;;;;;4975538;28;20034;-69
2021/11/28 05:50:53;;;;;;;3.60;1.30;;;9.30;93.80;;;;;;4975534;28;20443;-69
2021/11/28 05:53:18;;;;;;;8.57;1.97;;;9.30;93.70;;;;;;4975672;28;20023;-68
2021/11/28 05:55:44;;;;;;;5.40;1.40;;;9.30;93.60;;;;;;4958027;28;20042;-69
2021/11/28 05:58:10;;;;;;;9.33;1.80;;;9.30;93.50;;;;;;4975564;28;20464;-69
2021/11/28 06:00:36;;;;;;;6.73;1.90;;;9.30;93.50;;;;;;4975199;28;20472;-69
2021/11/28 06:03:02;;;;;;;10.00;2.00;;;9.30;93.40;;;;;;4975246;28;20369;-68
2021/11/28 06:05:28;;;;;;;5.43;1.87;;;9.30;93.40;;;;;;4975412;28;20035;-69
2021/11/28 06:07:54;;;;;;;4.87;2.03;;;9.30;93.70;;;;;;4974104;28;20051;-69
2021/11/28 06:10:19;;;;;;;9.10;2.73;;;9.30;93.40;;;;;;4975346;28;20031;-69
2021/11/28 06:12:45;;;;;;;6.33;2.57;;;9.30;93.40;;;;;;4975434;28;20050;-69
2021/11/28 06:15:11;;;;;;;8.27;2.00;;;9.30;93.40;;;;;;4975323;28;20029;-69
2021/11/28 06:17:37;;;;;;;4.77;2.20;;;9.30;93.40;;;;;;4974896;28;20117;-68
2021/11/28 06:20:05;;;;;;;4.40;2.23;;;9.30;93.40;;;;;;4974676;28;20535;-69
2021/11/28 06:22:31;;;;;;;5.67;1.67;;;9.30;93.40;;;;;;4975509;28;20503;-68
2021/11/28 06:24:56;;;;;;;7.00;2.73;;;9.30;93.40;;;;;;4975279;28;20027;-69
2021/11/28 06:27:22;;;;;;;5.13;1.70;;;9.30;93.40;;;;;;4975043;28;20035;-69
2021/11/28 06:29:48;;;;;;;5.03;1.77;;;9.40;93.40;;;;;;4974621;28;20039;-69
2021/11/28 06:32:15;;;;;;;5.23;2.10;;;9.30;93.40;;;;;;4974785;28;20025;-68
2021/11/28 06:34:42;;;;;;;8.83;2.30;;;9.30;93.40;;;;;;4957056;28;20023;-68
2021/11/28 06:37:08;;;;;;;8.23;2.30;;;9.30;93.40;;;;;;4974969;28;20030;-68
2021/11/28 06:39:34;;;;;;;5.17;2.17;;;9.30;93.40;;;;;;4974645;28;20030;-69
2021/11/28 06:41:59;;;;;;;4.97;2.57;;;9.30;93.40;;;;;;4974750;28;20027;-68
2021/11/28 06:44:25;;;;;;;4.10;1.90;;;9.30;93.40;;;;;;4974677;28;20027;-68
2021/11/28 06:46:51;;;;;;;8.20;2.90;;;9.30;93.40;;;;;;4974530;28;20026;-68
2021/11/28 06:49:16;;;;;;;12.73;2.63;;;9.30;93.30;;;;;;4974142;28;20031;-68
2021/11/28 06:51:42;;;;;;;5.57;2.40;;;9.30;93.30;;;;;;4974499;28;20059;-68
2021/11/28 06:54:08;;;;;;;7.90;2.00;;;9.30;93.20;;;;;;4974377;28;20181;-68
2021/11/28 06:56:34;;;;;;;5.93;2.37;;;9.30;93.10;;;;;;4956908;28;20479;-69
2021/11/28 06:58:59;;;;;;;7.07;2.30;;;9.30;93.10;;;;;;4974432;28;20030;-69
2021/11/28 07:01:25;;;;;;;5.63;2.37;;;9.30;93.00;;;;;;4974262;28;20038;-68
2021/11/28 07:03:51;;;;;;;7.50;2.10;;;9.20;93.10;;;;;;4974370;28;20143;-68
2021/11/28 07:06:16;;;;;;;7.67;2.57;;;9.20;93.20;;;;;;4974144;28;20468;-68
2021/11/28 07:08:42;;;;;;;6.60;2.57;;;9.20;93.30;;;;;;4974181;28;20050;-68
2021/11/28 07:11:08;;;;;;;4.90;2.53;;;9.20;93.30;;;;;;4972128;28;20490;-70
2021/11/28 07:13:33;;;;;;;5.13;2.27;;;9.20;93.30;;;;;;4971643;28;20105;-70
2021/11/28 07:15:59;;;;;;;7.23;2.90;;;9.20;93.30;;;;;;4971467;28;20095;-69
2021/11/28 07:18:25;;;;;;;5.27;2.40;;;9.20;93.40;;;;;;4971452;28;20077;-69
2021/11/28 07:20:51;;;;;;;4.90;2.70;;;9.20;93.40;;;;;;4971618;28;20085;-69
2021/11/28 07:23:16;;;;;;;8.07;2.97;;;9.20;93.40;;;;;;4974086;28;20031;-69
2021/11/28 07:25:42;;;;;;;5.67;3.00;;;9.20;93.30;;;;;;4974336;28;20475;-69
2021/11/28 07:28:08;;;;;;;9.43;3.50;;;9.20;93.30;;;;;;4974208;28;20460;-69
2021/11/28 07:30:34;;;;;;;9.67;3.53;;;9.20;93.20;;;;;;4973978;28;20038;-69
2021/11/28 07:32:59;;;;;;;6.90;3.70;;;9.20;93.10;;;;;;4974353;28;20038;-69
2021/11/28 07:35:25;;;;;;;6.57;4.07;;;9.20;93.00;;;;;;4974045;28;20035;-69
2021/11/28 07:37:51;;;;;;;7.63;3.53;;;9.20;93.10;;;;;;4974093;28;20038;-69
2021/11/28 07:40:17;;;;;;;7.43;3.37;;;9.20;93.00;;;;;;4973810;28;20039;-69
2021/11/28 07:42:43;;;;;;;6.53;3.73;;;9.30;93.10;;;;;;4973799;28;20110;-69
2021/11/28 07:45:10;;;;;;;10.57;7.33;;;9.30;93.00;;;;;;4973643;28;20103;-69
2021/11/28 07:47:37;;;;;;;13.53;6.70;;;9.30;93.00;;;;;;4974225;28;20089;-69
2021/11/28 07:50:05;;;;;;;11.30;6.53;;;9.30;93.00;;;;;;4973632;28;20043;-70
2021/11/28 07:52:31;;;;;;;14.60;6.77;;;9.30;92.90;;;;;;4970597;28;20550;-68
2021/11/28 07:54:56;;;;;;;11.90;5.13;;;9.30;92.90;;;;;;4971060;28;20042;-68
2021/11/28 07:57:22;;;;;;;8.77;5.40;;;9.30;92.90;;;;;;4971777;28;20097;-68
2021/11/28 07:59:48;;;;;;;9.37;5.30;;;9.30;92.90;;;;;;4973019;28;20085;-70
2021/11/28 08:02:18;;;;;;;17.97;5.90;;;9.30;93.30;;;;;;4973011;28;20023;-74
2021/11/28 08:04:46;;;;;;;14.93;7.23;;;9.30;93.10;;;;;;4973266;28;20106;-70
2021/11/28 08:07:11;;;;;;;12.37;6.37;;;9.30;93.20;;;;;;4972617;28;20126;-70
2021/11/28 08:09:37;;;;;;;14.57;7.00;;;9.30;93.20;;;;;;4972884;28;20105;-69
2021/11/28 08:12:03;;;;;;;11.47;6.50;;;9.30;93.20;;;;;;4973215;28;20055;-68
2021/11/28 08:14:30;;;;;;;13.13;7.10;;;9.30;93.20;;;;;;4973374;28;20049;-68
2021/11/28 08:16:56;;;;;;;10.63;7.03;;;9.30;93.20;;;;;;4973295;28;20030;-69
2021/11/28 08:19:21;;;;;;;12.33;6.67;;;9.40;93.20;;;;;;4970271;28;20031;-68
2021/11/28 08:21:47;;;;;;;10.93;6.60;;;9.40;93.30;;;;;;4968993;28;20022;-68
2021/11/28 08:24:13;;;;;;;13.90;7.10;;;9.40;93.30;;;;;;4971983;28;20403;-68
2021/11/28 08:26:40;;;;;;;13.57;6.87;;;9.40;93.20;;;;;;4973535;28;20030;-68
2021/11/28 08:29:06;;;;;;;12.20;7.03;;;9.40;93.30;;;;;;4973434;28;20067;-68
2021/11/28 08:31:34;;;;;;;14.37;6.80;;;9.40;93.30;;;;;;4975142;28;20026;-68
2021/11/28 08:34:00;;;;;;;21.87;8.43;;;9.50;93.50;;;;;;4976973;28;20460;-68
2021/11/28 08:36:26;;;;;;;14.20;6.70;;;9.50;93.50;;;;;;4976862;28;20041;-68
2021/11/28 08:38:53;;;;;;;14.90;8.30;;;9.50;93.30;;;;;;4976860;28;20041;-68
2021/11/28 08:41:22;;;;;;;14.17;6.33;;;9.50;93.00;;;;;;4959531;28;20023;-67
2021/11/28 08:43:51;;;;;;;228.33;18.23;;;9.60;92.80;;;;;;4976920;28;20039;-67
2021/11/28 08:46:18;;;;;;;22.10;7.77;;;9.60;93.60;;;;;;4975470;28;20488;-68
2021/11/28 08:48:44;;;;;;;14.13;6.93;;;9.60;93.50;;;;;;4977210;28;20035;-68
2021/11/28 08:51:10;;;;;;;12.77;6.27;;;9.60;93.40;;;;;;4976598;28;20054;-72
2021/11/28 08:53:37;;;;;;;9.87;6.30;;;9.60;93.30;;;;;;4976501;28;20391;-68
2021/11/28 08:56:03;;;;;;;11.17;6.40;;;9.70;93.40;;;;;;4976641;28;20510;-70
2021/11/28 08:58:30;;;;;;;8.07;5.73;;;9.60;93.20;;;;;;4976599;28;20014;-68
2021/11/28 09:00:56;;;;;;;7.43;4.90;;;9.70;93.10;;;;;;4976312;28;20019;-68
2021/11/28 09:03:21;;;;;;;11.43;5.20;;;9.70;93.00;;;;;;4976345;28;20018;-69
2021/11/28 09:05:47;;;;;;;160.93;10.27;;;9.70;93.00;;;;;;4976430;28;20495;-67
2021/11/28 09:08:13;;;;;;;9.77;4.77;;;9.70;92.90;;;;;;4976138;28;20094;-68
2021/11/28 09:10:41;;;;;;;31.77;6.23;;;9.70;92.90;;;;;;4975623;28;20027;-69
2021/11/28 09:13:07;;;;;;;12.50;6.72;;;9.70;92.80;;;;;;4974388;28;20498;-68
2021/11/28 09:15:33;;;;;;;8.15;4.85;;;9.70;93.10;;;;;;4975504;28;20031;-69
2021/11/28 09:18:06;;;;;;;606.90;30.20;;;9.70;93.30;;;;;;4976106;28;20025;-68
2021/11/28 09:20:34;;;;;;;9.03;4.77;;;9.80;93.20;;;;;;4975820;28;20034;-68
2021/11/28 09:25:30;;;;;;;9.57;4.73;;;9.80;93.30;;;;;;4975965;28;20429;-68
2021/11/28 09:28:00;;;;;;;229.50;12.53;;;9.80;93.20;;;;;;4975983;28;20021;-68
2021/11/28 09:30:28;;;;;;;7.33;4.30;;;9.80;93.00;;;;;;4975896;28;20057;-68
2021/11/28 09:32:55;;;;;;;8.17;4.23;;;9.80;92.80;;;;;;4957662;28;20037;-69
2021/11/28 09:35:23;;;;;;;5.80;3.80;;;9.80;92.60;;;;;;4972940;28;20065;-68
2021/11/28 09:37:50;;;;;;;10.73;5.03;;;9.70;92.40;;;;;;4973110;28;20026;-68
2021/11/28 09:40:15;;;;;;;477.83;22.80;;;9.70;92.30;;;;;;4975336;28;20027;-68
2021/11/28 09:42:50;;;;;;;7.30;3.67;;;9.70;92.30;;;;;;4975397;28;20035;-69
2021/11/28 09:45:16;;;;;;;11.63;4.30;;;9.80;92.20;;;;;;4975223;28;20038;-69
2021/11/28 09:47:44;;;;;;;6.20;3.70;;;9.80;92.10;;;;;;4975876;28;20037;-68
2021/11/28 09:50:11;;;;;;;21.97;4.67;;;9.80;92.10;;;;;;4975594;28;20045;-68
2021/11/28 09:52:38;;;;;;;5.78;3.05;;;9.80;92.20;;;;;;4975719;28;20499;-68
2021/11/28 09:55:12;;;;;;;116.70;8.13;;;9.80;92.20;;;;;;4975238;28;20532;-68
2021/11/28 09:57:40;;;;;;;5.70;3.53;;;9.80;92.10;;;;;;4974272;28;20097;-70
2021/11/28 10:00:09;;;;;;;5.33;3.70;;;9.90;92.10;;;;;;4972542;28;20113;-68
2021/11/28 10:02:38;;;;;;;6.43;3.10;;;9.90;92.30;;;;;;4972603;28;20039;-68
2021/11/28 10:05:10;;;;;;;23.00;3.93;;;9.90;92.30;;;;;;4956459;28;20031;-68
2021/11/28 10:07:42;;;;;;;3.50;2.55;;;9.90;92.10;;;;;;4975070;28;20043;-68
2021/11/28 10:10:09;;;;;;;64.90;4.25;;;9.90;92.00;;;;;;4974411;28;20527;-67
2021/11/28 10:12:40;;;;;;;4.43;2.27;;;9.90;91.90;;;;;;4974716;28;20019;-67
2021/11/28 10:15:09;;;;;;;8.83;2.80;;;9.90;91.80;;;;;;4974810;28;20033;-68
2021/11/28 10:17:36;;;;;;;462.13;17.83;;;9.90;92.40;;;;;;4974873;28;20027;-68
2021/11/28 10:20:05;;;;;;;5.40;2.50;;;9.90;91.90;;;;;;4974280;28;20085;-68
2021/11/28 10:22:31;;;;;;;14.60;6.17;;;9.90;92.20;;;;;;4974857;28;20062;-68
2021/11/28 10:25:11;;;;;;;6.35;2.25;;;9.90;92.30;;;;;;4974692;28;20061;-69
2021/11/28 10:27:42;;;;;;;3.80;2.30;;;9.90;92.20;;;;;;4972545;28;20040;-67
2021/11/28 10:30:12;;;;;;;5.67;2.90;;;9.90;91.80;;;;;;4971666;28;20046;-67
2021/11/28 10:32:47;;;;;;;5.67;3.10;;;9.90;91.70;;;;;;4971897;28;20034;-66
2021/11/28 10:35:13;;;;;;;5.73;2.90;;;9.90;91.60;;;;;;4973867;28;20034;-69
2021/11/28 10:37:45;;;;;;;6.73;2.73;;;10.00;91.60;;;;;;4974255;28;20098;-69
2021/11/28 10:40:13;;;;;;;5.43;2.33;;;10.00;91.50;;;;;;4974252;28;20011;-73
2021/11/28 10:42:39;;;;;;;5.13;2.50;;;10.00;91.30;;;;;;4974391;28;20082;-68
2021/11/28 10:45:11;;;;;;;7.05;2.90;;;10.00;91.10;;;;;;4974160;28;20050;-67
2021/11/28 10:47:38;;;;;;;5.83;2.93;;;10.10;91.20;;;;;;4974629;28;20037;-68
2021/11/28 10:50:15;;;;;;;8.13;2.93;;;10.10;91.20;;;;;;4973567;28;20034;-68
2021/11/28 10:52:44;;;;;;;1153.53;47.63;;;10.20;91.10;;;;;;4973193;28;20101;-68
2021/11/28 10:55:22;;;;;;;40.77;5.53;;;10.20;91.90;;;;;;4972607;28;20114;-67
2021/11/28 10:58:06;;;;;;;99.97;10.02;;;10.30;91.80;;;;;;4973685;28;20027;-67
2021/11/28 11:00:34;;;;;;;4.80;2.85;;;10.30;92.10;;;;;;4974184;28;20026;-68
2021/11/28 11:03:19;;;;;;;233.30;14.70;;;10.30;91.70;;;;;;4974212;28;20447;-68
2021/11/28 11:05:50;;;;;;;11.90;4.57;;;10.30;91.80;;;;;;4973877;28;20019;-68
2021/11/28 11:08:18;;;;;;;805.30;59.07;;;10.40;91.90;;;;;;4973814;28;20492;-68
2021/11/28 11:10:50;;;;;;;36.45;4.70;;;10.40;91.60;;;;;;4974098;28;20471;-68
2021/11/28 11:13:19;;;;;;;275.58;13.60;;;10.40;92.00;;;;;;4974119;28;20025;-68
2021/11/28 11:15:49;;;;;;;792.40;40.15;;;10.40;91.70;;;;;;4974351;28;20031;-68
2021/11/28 11:18:19;;;;;;;40.83;8.80;;;10.40;92.20;;;;;;4974097;28;20085;-68
2021/11/28 11:20:47;;;;;;;362.40;19.33;;;10.40;92.90;;;;;;4972139;28;20126;-68
2021/11/28 11:23:40;;;;;;;8.70;5.28;;;10.50;92.90;;;;;;4952018;28;20031;-69
2021/11/28 11:26:21;;;;;;;6.00;3.90;;;10.50;93.00;;;;;;4978830;28;20033;-68
2021/11/28 11:29:11;;;;;;;6.45;2.97;;;10.50;92.30;;;;;;4966679;28;20578;-69
2021/11/28 11:31:42;;;;;;;5.57;3.30;;;10.50;91.70;;;;;;4993168;28;20030;-70
2021/11/28 11:34:23;;;;;;;7.40;3.60;;;10.50;91.60;;;;;;4993469;28;20395;-68
2021/11/28 11:37:01;;;;;;;79.75;6.82;;;10.50;91.20;;;;;;4988445;28;20027;-68
2021/11/28 11:39:30;;;;;;;998.92;46.67;;;10.50;91.20;;;;;;4984880;28;20483;-68
2021/11/28 11:41:57;;;;;;;95.88;8.32;;;10.50;91.80;;;;;;4993060;28;20031;-68
2021/11/28 11:44:25;;;;;;;203.05;13.80;;;10.50;92.30;;;;;;4993084;28;20103;-70
2021/11/28 11:46:52;;;;;;;178.70;14.20;;;10.60;92.30;;;;;;4992848;28;20031;-69
2021/11/28 11:49:18;;;;;;;636.45;32.35;;;10.60;92.00;;;;;;4992599;28;20038;-69
2021/11/28 11:51:47;;;;;;;143.35;11.32;;;10.60;92.00;;;;;;4993136;28;20041;-67
2021/11/28 11:54:46;;;;;;;9.13;4.75;;;10.60;92.00;;;;;;4993270;28;20101;-71
2021/11/28 11:57:17;;;;;;;8.40;4.32;;;10.60;91.70;;;;;;4992514;28;20023;-68
2021/11/28 12:00:08;;;;;;;5.53;3.65;;;10.60;91.60;;;;;;4988154;28;20058;-68
2021/11/28 12:02:44;;;;;;;6.00;3.53;;;10.60;91.60;;;;;;4950155;29;20023;-68
2021/11/28 12:05:34;;;;;;;5.22;3.28;;;10.70;91.20;;;;;;4936644;29;20034;-68
2021/11/28 12:08:04;;;;;;;9.00;4.57;;;10.60;91.00;;;;;;4957871;29;20057;-67
2021/11/28 12:10:43;;;;;;;5.80;4.00;;;10.70;90.90;;;;;;4957860;28;20118;-68
2021/11/28 12:13:33;;;;;;;6.75;4.20;;;10.70;90.80;;;;;;4958282;29;20055;-67
2021/11/28 12:16:08;;;;;;;5.15;3.97;;;10.70;90.80;;;;;;4958476;28;20071;-68
2021/11/28 12:18:33;;;;;;;8.15;4.95;;;10.70;90.80;;;;;;4958278;29;20503;-68
2021/11/28 12:21:30;;;;;;;7.90;4.93;;;10.70;91.00;;;;;;4958208;29;20023;-68
2021/11/28 12:24:11;;;;;;;12.43;6.10;;;10.70;91.00;;;;;;4955647;29;20038;-68
2021/11/28 12:26:39;;;;;;;7.65;5.68;;;10.70;91.00;;;;;;4955300;29;20042;-68
2021/11/28 12:29:11;;;;;;;9.23;5.55;;;10.70;91.20;;;;;;4955593;29;20043;-68
2021/11/28 12:32:12;;;;;;;9.13;5.20;;;10.70;91.10;;;;;;4957788;29;20031;-68
2021/11/28 12:34:43;;;;;;;8.23;5.25;;;10.80;91.10;;;;;;4957758;29;20270;-68
2021/11/28 12:37:31;;;;;;;11.23;4.95;;;10.80;91.10;;;;;;4957789;29;20032;-69
2021/11/28 12:40:18;;;;;;;8.95;5.57;;;10.80;91.10;;;;;;4939953;28;20030;-67
2021/11/28 12:42:45;;;;;;;10.65;6.25;;;10.80;91.20;;;;;;4973561;28;20130;-73
2021/11/28 12:45:10;;;;;;;8.13;6.13;;;10.80;91.10;;;;;;4974716;28;20361;-67
2021/11/28 12:47:37;;;;;;;9.73;6.65;;;10.80;91.00;;;;;;4976509;28;20077;-68
2021/11/28 12:50:18;;;;;;;12.88;6.75;;;10.80;91.00;;;;;;4976323;28;20046;-68
2021/11/28 12:52:46;;;;;;;8.68;6.30;;;10.80;91.10;;;;;;4976459;28;20062;-67
2021/11/28 12:55:19;;;;;;;8.27;6.28;;;10.80;91.00;;;;;;4976578;28;20027;-69
2021/11/28 12:58:00;;;;;;;9.68;6.72;;;10.80;91.10;;;;;;4976272;28;20483;-68
2021/11/28 13:00:30;;;;;;;9.07;6.20;;;10.80;91.10;;;;;;4976009;28;20031;-69